createdAt,value
2019-03-28T00:00:04.678Z,1027.33
2019-03-28T00:01:04.666Z,1027.38
2019-03-28T00:02:04.664Z,1027.32
2019-03-28T00:03:04.672Z,1027.40
2019-03-28T00:04:04.656Z,1027.26
2019-03-28T00:05:04.614Z,1027.33
2019-03-28T00:06:04.604Z,1027.34
2019-03-28T00:07:04.608Z,1027.30
2019-03-28T00:08:04.581Z,1027.33
2019-03-28T00:09:07.616Z,1027.26
2019-03-28T00:10:04.570Z,1027.34
2019-03-28T00:11:04.540Z,1027.29
2019-03-28T00:12:04.532Z,1027.26
2019-03-28T00:13:04.707Z,1027.32
2019-03-28T00:14:04.531Z,1027.27
2019-03-28T00:15:04.505Z,1027.26
2019-03-28T00:16:04.511Z,1027.21
2019-03-28T00:17:04.476Z,1027.27
2019-03-28T00:18:04.478Z,1027.32
2019-03-28T00:19:04.490Z,1027.28
2019-03-28T00:20:04.465Z,1027.23
2019-03-28T00:21:04.443Z,1027.25
2019-03-28T00:22:05.793Z,1027.29
2019-03-28T00:23:04.418Z,1027.26
2019-03-28T00:24:04.404Z,1027.25
2019-03-28T00:25:04.396Z,1027.28
2019-03-28T00:26:04.407Z,1027.22
2019-03-28T00:27:04.376Z,1027.23
2019-03-28T00:28:04.382Z,1027.26
2019-03-28T00:29:04.434Z,1027.29
2019-03-28T00:30:04.492Z,1027.26
2019-03-28T00:31:04.344Z,1027.18
2019-03-28T00:32:04.358Z,1027.22
2019-03-28T00:33:04.349Z,1027.26
2019-03-28T00:34:04.282Z,1027.26
2019-03-28T00:35:04.272Z,1027.28
2019-03-28T00:36:04.269Z,1027.26
2019-03-28T00:37:07.452Z,1027.27
2019-03-28T00:38:04.293Z,1027.26
2019-03-28T00:39:04.258Z,1027.28
2019-03-28T00:40:04.357Z,1027.27
2019-03-28T00:41:04.203Z,1027.26
2019-03-28T00:42:04.206Z,1027.25
2019-03-28T00:43:04.209Z,1027.27
2019-03-28T00:44:04.222Z,1027.21
2019-03-28T00:45:04.205Z,1027.22
2019-03-28T00:46:04.150Z,1027.20
2019-03-28T00:47:04.148Z,1027.24
2019-03-28T00:48:04.143Z,1027.23
2019-03-28T00:49:04.146Z,1027.21
2019-03-28T00:50:04.107Z,1027.18
2019-03-28T00:51:04.160Z,1027.22
2019-03-28T00:52:04.109Z,1027.18
2019-03-28T00:53:04.180Z,1027.24
2019-03-28T00:54:12.674Z,1027.21
2019-03-28T00:55:04.085Z,1027.26
2019-03-28T00:56:04.033Z,1027.26
2019-03-28T00:57:04.026Z,1027.22
2019-03-28T00:58:04.018Z,1027.27
2019-03-28T00:59:04.024Z,1027.25
2019-03-28T01:00:04.030Z,1027.29
2019-03-28T01:01:04.022Z,1027.29
2019-03-28T01:02:03.969Z,1027.27
2019-03-28T01:03:04.017Z,1027.26
2019-03-28T01:04:03.955Z,1027.26
2019-03-28T01:05:03.945Z,1027.20
2019-03-28T01:06:03.937Z,1027.33
2019-03-28T01:07:03.933Z,1027.29
2019-03-28T01:08:03.948Z,1027.28
2019-03-28T01:09:04.344Z,1027.27
2019-03-28T01:10:03.895Z,1027.25
2019-03-28T01:11:03.900Z,1027.21
2019-03-28T01:12:03.864Z,1027.26
2019-03-28T01:13:03.903Z,1027.27
2019-03-28T01:14:03.840Z,1027.22
2019-03-28T01:15:03.822Z,1027.22
2019-03-28T01:16:03.835Z,1027.26
2019-03-28T01:17:03.825Z,1027.25
2019-03-28T01:18:03.797Z,1027.26
2019-03-28T01:19:03.821Z,1027.29
2019-03-28T01:20:03.775Z,1027.25
2019-03-28T01:21:03.754Z,1027.24
2019-03-28T01:22:03.757Z,1027.18
2019-03-28T01:23:03.773Z,1027.24
2019-03-28T01:24:03.892Z,1027.24
2019-03-28T01:25:03.712Z,1027.23
2019-03-28T01:26:03.703Z,1027.30
2019-03-28T01:27:03.717Z,1027.21
2019-03-28T01:28:03.736Z,1027.27
2019-03-28T01:29:03.700Z,1027.17
2019-03-28T01:30:03.654Z,1027.25
2019-03-28T01:31:03.646Z,1027.19
2019-03-28T01:32:03.634Z,1027.20
2019-03-28T01:33:03.641Z,1027.24
2019-03-28T01:34:03.680Z,1027.29
2019-03-28T01:35:03.595Z,1027.17
2019-03-28T01:36:03.583Z,1027.21
2019-03-28T01:37:04.146Z,1027.23
2019-03-28T01:38:03.568Z,1027.17
2019-03-28T01:39:03.576Z,1027.27
2019-03-28T01:40:03.574Z,1027.19
2019-03-28T01:41:03.549Z,1027.24
2019-03-28T01:42:03.513Z,1027.24
2019-03-28T01:43:03.519Z,1027.24
2019-03-28T01:44:03.510Z,1027.27
2019-03-28T01:45:03.522Z,1027.26
2019-03-28T01:46:03.513Z,1027.27
2019-03-28T01:47:03.467Z,1027.23
2019-03-28T01:48:03.461Z,1027.24
2019-03-28T01:49:03.814Z,1027.25
2019-03-28T01:50:03.461Z,1027.33
2019-03-28T01:51:03.456Z,1027.24
2019-03-28T01:52:04.406Z,1027.26
2019-03-28T01:53:03.416Z,1027.27
2019-03-28T01:54:03.630Z,1027.26
2019-03-28T01:55:03.378Z,1027.25
2019-03-28T01:56:03.391Z,1027.28
2019-03-28T01:57:10.835Z,1027.25
2019-03-28T01:58:05.210Z,1027.26
2019-03-28T01:59:03.321Z,1027.25
2019-03-28T02:00:03.307Z,1027.28
2019-03-28T02:01:03.419Z,1027.34
2019-03-28T02:02:03.316Z,1027.25
2019-03-28T02:03:03.270Z,1027.37
2019-03-28T02:04:03.277Z,1027.25
2019-03-28T02:05:03.261Z,1027.26
2019-03-28T02:06:03.261Z,1027.28
2019-03-28T02:07:03.248Z,1027.24
2019-03-28T02:08:03.259Z,1027.33
2019-03-28T02:09:03.270Z,1027.23
2019-03-28T02:10:03.197Z,1027.24
2019-03-28T02:11:03.190Z,1027.33
2019-03-28T02:12:03.201Z,1027.26
2019-03-28T02:13:03.181Z,1027.35
2019-03-28T02:14:03.149Z,1027.29
2019-03-28T02:15:03.140Z,1027.35
2019-03-28T02:16:03.154Z,1027.30
2019-03-28T02:17:03.117Z,1027.29
2019-03-28T02:18:03.338Z,1027.29
2019-03-28T02:19:03.102Z,1027.31
2019-03-28T02:20:03.081Z,1027.38
2019-03-28T02:21:03.072Z,1027.37
2019-03-28T02:22:03.069Z,1027.29
2019-03-28T02:23:03.071Z,1027.33
2019-03-28T02:24:03.054Z,1027.29
2019-03-28T02:25:03.045Z,1027.29
2019-03-28T02:26:03.079Z,1027.38
2019-03-28T02:27:03.002Z,1027.34
2019-03-28T02:28:03.010Z,1027.38
2019-03-28T02:29:02.989Z,1027.31
2019-03-28T02:30:02.998Z,1027.28
2019-03-28T02:31:02.978Z,1027.35
2019-03-28T02:32:02.950Z,1027.39
2019-03-28T02:33:02.987Z,1027.33
2019-03-28T02:34:02.930Z,1027.37
2019-03-28T02:35:02.909Z,1027.37
2019-03-28T02:36:02.926Z,1027.46
2019-03-28T02:37:02.918Z,1027.41
2019-03-28T02:38:03.024Z,1027.43
2019-03-28T02:39:02.881Z,1027.33
2019-03-28T02:40:02.871Z,1027.39
2019-03-28T02:41:02.875Z,1027.36
2019-03-28T02:42:02.868Z,1027.42
2019-03-28T02:43:02.836Z,1027.32
2019-03-28T02:44:02.814Z,1027.37
2019-03-28T02:45:03.578Z,1027.34
2019-03-28T02:46:02.814Z,1027.39
2019-03-28T02:47:02.785Z,1027.43
2019-03-28T02:48:02.820Z,1027.40
2019-03-28T02:49:02.752Z,1027.46
2019-03-28T02:50:02.759Z,1027.39
2019-03-28T02:51:03.775Z,1027.39
2019-03-28T02:52:02.788Z,1027.38
2019-03-28T02:53:02.724Z,1027.44
2019-03-28T02:54:02.692Z,1027.46
2019-03-28T02:55:02.693Z,1027.35
2019-03-28T02:56:02.687Z,1027.36
2019-03-28T02:57:02.692Z,1027.43
2019-03-28T02:58:02.703Z,1027.47
2019-03-28T02:59:02.978Z,1027.40
2019-03-28T03:00:02.633Z,1027.43
2019-03-28T03:01:02.616Z,1027.44
2019-03-28T03:02:02.603Z,1027.40
2019-03-28T03:03:02.639Z,1027.48
2019-03-28T03:04:02.636Z,1027.46
2019-03-28T03:05:02.604Z,1027.50
2019-03-28T03:06:02.565Z,1027.46
2019-03-28T03:07:02.553Z,1027.48
2019-03-28T03:08:02.554Z,1027.48
2019-03-28T03:09:02.539Z,1027.42
2019-03-28T03:10:02.564Z,1027.40
2019-03-28T03:11:02.535Z,1027.39
2019-03-28T03:12:02.491Z,1027.41
2019-03-28T03:13:02.505Z,1027.48
2019-03-28T03:14:02.479Z,1027.44
2019-03-28T03:15:03.585Z,1027.41
2019-03-28T03:16:02.477Z,1027.43
2019-03-28T03:17:02.439Z,1027.45
2019-03-28T03:18:02.481Z,1027.48
2019-03-28T03:19:02.426Z,1027.42
2019-03-28T03:20:02.431Z,1027.42
2019-03-28T03:21:02.424Z,1027.43
2019-03-28T03:22:02.922Z,1027.46
2019-03-28T03:23:02.410Z,1027.51
2019-03-28T03:24:02.355Z,1027.36
2019-03-28T03:25:02.379Z,1027.44
2019-03-28T03:26:02.340Z,1027.44
2019-03-28T03:27:02.321Z,1027.48
2019-03-28T03:28:02.348Z,1027.45
2019-03-28T03:29:02.300Z,1027.50
2019-03-28T03:30:03.581Z,1027.47
2019-03-28T03:31:02.325Z,1027.56
2019-03-28T03:32:02.277Z,1027.52
2019-03-28T03:33:02.279Z,1027.47
2019-03-28T03:34:02.376Z,1027.41
2019-03-28T03:35:02.459Z,1027.46
2019-03-28T03:36:02.243Z,1027.45
2019-03-28T03:37:02.251Z,1027.43
2019-03-28T03:38:02.262Z,1027.40
2019-03-28T03:39:02.232Z,1027.44
2019-03-28T03:40:02.194Z,1027.40
2019-03-28T03:41:02.173Z,1027.43
2019-03-28T03:42:02.166Z,1027.51
2019-03-28T03:43:02.177Z,1027.45
2019-03-28T03:44:02.127Z,1027.45
2019-03-28T03:45:02.139Z,1027.46
2019-03-28T03:46:02.126Z,1027.51
2019-03-28T03:47:02.106Z,1027.51
2019-03-28T03:48:02.127Z,1027.50
2019-03-28T03:49:02.116Z,1027.46
2019-03-28T03:50:02.062Z,1027.53
2019-03-28T03:51:02.082Z,1027.48
2019-03-28T03:52:02.052Z,1027.52
2019-03-28T03:53:02.071Z,1027.52
2019-03-28T03:54:02.022Z,1027.51
2019-03-28T03:55:02.005Z,1027.53
2019-03-28T03:56:02.025Z,1027.56
2019-03-28T03:57:01.986Z,1027.56
2019-03-28T03:58:15.574Z,1027.56
2019-03-28T03:59:03.005Z,1027.54
2019-03-28T04:00:01.992Z,1027.56
2019-03-28T04:01:02.037Z,1027.56
2019-03-28T04:02:01.938Z,1027.60
2019-03-28T04:03:03.016Z,1027.58
2019-03-28T04:04:01.968Z,1027.62
2019-03-28T04:05:01.916Z,1027.48
2019-03-28T04:06:01.897Z,1027.61
2019-03-28T04:07:01.881Z,1027.51
2019-03-28T04:08:01.859Z,1027.56
2019-03-28T04:09:01.869Z,1027.55
2019-03-28T04:10:01.872Z,1027.59
2019-03-28T04:11:01.831Z,1027.54
2019-03-28T04:12:01.814Z,1027.55
2019-03-28T04:13:01.809Z,1027.55
2019-03-28T04:14:02.625Z,1027.60
2019-03-28T04:15:01.821Z,1027.57
2019-03-28T04:16:01.790Z,1027.55
2019-03-28T04:17:01.806Z,1027.54
2019-03-28T04:18:01.751Z,1027.56
2019-03-28T04:19:01.760Z,1027.52
2019-03-28T04:20:01.753Z,1027.59
2019-03-28T04:21:01.724Z,1027.58
2019-03-28T04:22:01.745Z,1027.58
2019-03-28T04:23:01.685Z,1027.68
2019-03-28T04:24:01.686Z,1027.66
2019-03-28T04:25:01.689Z,1027.66
2019-03-28T04:26:01.671Z,1027.65
2019-03-28T04:27:01.694Z,1027.64
2019-03-28T04:28:01.680Z,1027.70
2019-03-28T04:29:01.628Z,1027.60
2019-03-28T04:30:01.664Z,1027.67
2019-03-28T04:31:01.618Z,1027.64
2019-03-28T04:32:01.638Z,1027.68
2019-03-28T04:33:01.614Z,1027.68
2019-03-28T04:34:07.458Z,1027.75
2019-03-28T04:35:02.655Z,1027.69
2019-03-28T04:36:01.568Z,1027.70
2019-03-28T04:37:01.557Z,1027.73
2019-03-28T04:38:01.559Z,1027.90
2019-03-28T04:39:01.563Z,1027.79
2019-03-28T04:40:01.562Z,1027.85
2019-03-28T04:41:01.488Z,1027.81
2019-03-28T04:42:01.477Z,1027.77
2019-03-28T04:43:01.508Z,1027.79
2019-03-28T04:44:01.483Z,1027.83
2019-03-28T04:45:01.442Z,1027.88
2019-03-28T04:46:01.427Z,1027.82
2019-03-28T04:47:01.420Z,1027.88
2019-03-28T04:48:01.597Z,1027.93
2019-03-28T04:49:01.403Z,1027.94
2019-03-28T04:50:01.402Z,1027.95
2019-03-28T04:51:01.513Z,1027.87
2019-03-28T04:52:01.354Z,1027.97
2019-03-28T04:53:01.382Z,1027.96
2019-03-28T04:54:01.341Z,1027.95
2019-03-28T04:55:01.378Z,1027.95
2019-03-28T04:56:01.346Z,1027.99
2019-03-28T04:57:01.305Z,1027.98
2019-03-28T04:58:01.312Z,1027.95
2019-03-28T04:59:01.290Z,1027.92
2019-03-28T05:00:01.277Z,1027.94
2019-03-28T05:01:01.274Z,1027.98
2019-03-28T05:02:03.417Z,1027.92
2019-03-28T05:03:01.264Z,1027.89
2019-03-28T05:04:01.227Z,1027.91
2019-03-28T05:05:01.233Z,1027.94
2019-03-28T05:06:01.219Z,1027.90
2019-03-28T05:07:01.238Z,1027.97
2019-03-28T05:08:01.251Z,1027.99
2019-03-28T05:09:01.167Z,1028.00
2019-03-28T05:10:01.162Z,1028.00
2019-03-28T05:11:01.203Z,1028.03
2019-03-28T05:12:01.169Z,1027.98
2019-03-28T05:13:01.165Z,1028.06
2019-03-28T05:14:01.114Z,1028.00
2019-03-28T05:15:01.097Z,1028.04
2019-03-28T05:16:01.125Z,1028.01
2019-03-28T05:17:01.167Z,1028.02
2019-03-28T05:18:01.089Z,1028.02
2019-03-28T05:19:01.068Z,1028.01
2019-03-28T05:20:01.070Z,1028.07
2019-03-28T05:21:01.033Z,1028.06
2019-03-28T05:22:01.025Z,1028.15
2019-03-28T05:23:01.045Z,1028.06
2019-03-28T05:24:01.032Z,1028.15
2019-03-28T05:25:00.982Z,1028.13
2019-03-28T05:26:01.020Z,1028.11
2019-03-28T05:27:01.110Z,1028.16
2019-03-28T05:28:00.975Z,1028.14
2019-03-28T05:29:00.973Z,1028.15
2019-03-28T05:30:01.080Z,1028.12
2019-03-28T05:31:00.963Z,1028.18
2019-03-28T05:32:08.506Z,1028.09
2019-03-28T05:33:00.904Z,1028.11
2019-03-28T05:34:00.919Z,1028.11
2019-03-28T05:35:00.890Z,1028.18
2019-03-28T05:36:00.864Z,1028.10
2019-03-28T05:37:00.849Z,1028.20
2019-03-28T05:38:00.841Z,1028.09
2019-03-28T05:39:01.357Z,1028.09
2019-03-28T05:40:00.839Z,1028.05
2019-03-28T05:41:00.886Z,1028.11
2019-03-28T05:42:00.799Z,1028.15
2019-03-28T05:43:00.993Z,1028.13
2019-03-28T05:44:00.775Z,1028.18
2019-03-28T05:45:00.804Z,1028.15
2019-03-28T05:46:00.797Z,1028.19
2019-03-28T05:47:00.768Z,1028.21
2019-03-28T05:48:00.740Z,1028.28
2019-03-28T05:49:00.738Z,1028.32
2019-03-28T05:50:00.714Z,1028.25
2019-03-28T05:51:00.714Z,1028.26
2019-03-28T05:52:00.685Z,1028.40
2019-03-28T05:53:00.668Z,1028.31
2019-03-28T05:54:00.702Z,1028.28
2019-03-28T05:55:00.649Z,1028.28
2019-03-28T05:56:00.660Z,1028.23
2019-03-28T05:57:00.633Z,1028.34
2019-03-28T05:58:00.634Z,1028.35
2019-03-28T05:59:10.247Z,1028.29
2019-03-28T06:00:01.665Z,1028.30
2019-03-28T06:01:00.606Z,1028.33
2019-03-28T06:02:00.590Z,1028.29
2019-03-28T06:03:00.570Z,1028.31
2019-03-28T06:04:00.546Z,1028.36
2019-03-28T06:05:00.945Z,1028.30
2019-03-28T06:06:00.537Z,1028.36
2019-03-28T06:07:00.519Z,1028.38
2019-03-28T06:08:00.563Z,1028.49
2019-03-28T06:09:00.531Z,1028.50
2019-03-28T06:10:00.473Z,1028.44
2019-03-28T06:11:00.463Z,1028.45
2019-03-28T06:12:00.451Z,1028.59
2019-03-28T06:13:00.485Z,1028.52
2019-03-28T06:14:00.455Z,1028.57
2019-03-28T06:15:00.432Z,1028.57
2019-03-28T06:16:08.120Z,1028.64
2019-03-28T06:17:08.398Z,1028.65
2019-03-28T06:18:00.482Z,1028.64
2019-03-28T06:19:00.396Z,1028.62
2019-03-28T06:20:00.416Z,1028.67
2019-03-28T06:21:00.431Z,1028.74
2019-03-28T06:22:00.662Z,1028.61
2019-03-28T06:23:00.538Z,1028.65
2019-03-28T06:24:00.328Z,1028.68
2019-03-28T06:25:00.369Z,1028.75
2019-03-28T06:26:00.329Z,1028.68
2019-03-28T06:27:00.293Z,1028.81
2019-03-28T06:28:00.302Z,1028.78
2019-03-28T06:29:00.274Z,1028.82
2019-03-28T06:30:01.973Z,1028.84
2019-03-28T06:31:00.254Z,1028.80
2019-03-28T06:32:00.222Z,1028.83
2019-03-28T06:33:00.224Z,1028.81
2019-03-28T06:34:00.558Z,1028.91
2019-03-28T06:35:00.319Z,1028.89
2019-03-28T06:36:02.197Z,1028.91
2019-03-28T06:37:00.210Z,1028.88
2019-03-28T06:38:00.220Z,1028.92
2019-03-28T06:39:00.166Z,1028.87
2019-03-28T06:40:00.476Z,1028.89
2019-03-28T06:41:00.188Z,1028.93
2019-03-28T06:42:00.157Z,1028.94
2019-03-28T06:43:00.170Z,1028.92
2019-03-28T06:44:00.166Z,1028.95
2019-03-28T06:45:03.285Z,1028.98
2019-03-28T06:46:00.087Z,1028.90
2019-03-28T06:47:00.070Z,1028.95
2019-03-28T06:48:00.070Z,1028.94
2019-03-28T06:49:00.051Z,1028.96
2019-03-28T06:50:00.467Z,1028.94
2019-03-28T06:51:00.013Z,1028.97
2019-03-28T06:52:00.110Z,1028.98
2019-03-28T06:53:00.117Z,1028.94
2019-03-28T06:54:00.135Z,1028.94
2019-03-28T06:54:59.975Z,1029.04
2019-03-28T06:55:59.974Z,1028.99
2019-03-28T06:56:59.964Z,1028.95
2019-03-28T06:58:00.061Z,1029.02
2019-03-28T06:59:00.194Z,1029.04
2019-03-28T06:59:59.965Z,1029.01
2019-03-28T07:00:59.906Z,1029.11
2019-03-28T07:02:00.883Z,1029.08
2019-03-28T07:02:59.890Z,1029.05
2019-03-28T07:03:59.898Z,1029.09
2019-03-28T07:04:59.876Z,1029.02
2019-03-28T07:05:59.886Z,1029.02
2019-03-28T07:06:59.844Z,1029.03
2019-03-28T07:07:59.844Z,1028.97
2019-03-28T07:08:59.827Z,1029.01
2019-03-28T07:10:02.461Z,1029.07
2019-03-28T07:10:59.913Z,1029.04
2019-03-28T07:11:59.779Z,1029.06
2019-03-28T07:12:59.765Z,1029.02
2019-03-28T07:13:59.752Z,1029.06
2019-03-28T07:14:59.898Z,1029.00
2019-03-28T07:15:59.764Z,1029.07
2019-03-28T07:16:59.711Z,1029.04
2019-03-28T07:17:59.753Z,1029.09
2019-03-28T07:18:59.689Z,1029.09
2019-03-28T07:19:59.741Z,1029.02
2019-03-28T07:20:59.693Z,1029.11
2019-03-28T07:21:59.685Z,1029.10
2019-03-28T07:22:59.651Z,1029.03
2019-03-28T07:23:59.653Z,1029.05
2019-03-28T07:24:59.641Z,1029.10
2019-03-28T07:25:59.629Z,1029.08
2019-03-28T07:26:59.613Z,1029.10
2019-03-28T07:27:59.586Z,1029.08
2019-03-28T07:28:59.673Z,1029.08
2019-03-28T07:29:59.649Z,1029.13
2019-03-28T07:30:59.585Z,1029.21
2019-03-28T07:31:59.582Z,1029.14
2019-03-28T07:32:59.563Z,1029.10
2019-03-28T07:33:59.529Z,1029.20
2019-03-28T07:34:59.590Z,1029.20
2019-03-28T07:35:59.528Z,1029.12
2019-03-28T07:36:59.499Z,1029.17
2019-03-28T07:37:59.500Z,1029.18
2019-03-28T07:38:59.488Z,1029.24
2019-03-28T07:39:59.452Z,1029.15
2019-03-28T07:40:59.460Z,1029.21
2019-03-28T07:41:59.433Z,1029.22
2019-03-28T07:42:59.584Z,1029.23
2019-03-28T07:43:59.433Z,1029.22
2019-03-28T07:44:59.394Z,1029.23
2019-03-28T07:45:59.404Z,1029.29
2019-03-28T07:46:59.374Z,1029.26
2019-03-28T07:47:59.383Z,1029.35
2019-03-28T07:48:59.352Z,1029.36
2019-03-28T07:49:59.490Z,1029.36
2019-03-28T07:50:59.382Z,1029.34
2019-03-28T07:51:59.594Z,1029.33
2019-03-28T07:53:01.874Z,1029.36
2019-03-28T07:58:14.791Z,1029.28
2019-03-28T07:59:34.553Z,1029.34
2019-03-28T08:00:20.800Z,1029.33
2019-03-28T08:01:10.925Z,1029.33
2019-03-28T08:02:13.060Z,1029.38
2019-03-28T08:03:12.516Z,1029.40
2019-03-28T08:04:37.764Z,1029.42
2019-03-28T08:05:15.199Z,1029.35
2019-03-28T08:06:12.607Z,1029.36
2019-03-28T08:07:16.994Z,1029.36
2019-03-28T08:08:38.002Z,1029.33
2019-03-28T08:09:12.161Z,1029.42
2019-03-28T08:10:11.793Z,1029.42
2019-03-28T08:11:10.126Z,1029.38
2019-03-28T08:12:21.813Z,1029.43
2019-03-28T08:13:11.750Z,1029.39
2019-03-28T08:14:09.793Z,1029.43
2019-03-28T08:15:12.744Z,1029.40
2019-03-28T08:16:09.754Z,1029.37
2019-03-28T08:17:12.511Z,1029.37
2019-03-28T08:18:11.588Z,1029.37
2019-03-28T08:19:09.876Z,1029.35
2019-03-28T08:20:11.760Z,1029.42
2019-03-28T08:21:11.718Z,1029.45
2019-03-28T08:23:25.959Z,1029.54
2019-03-28T08:25:51.012Z,1029.52
2019-03-28T08:26:47.573Z,1029.49
2019-03-28T08:27:47.598Z,1029.50
2019-03-28T08:28:47.553Z,1029.48
2019-03-28T08:29:47.519Z,1029.48
2019-03-28T08:30:47.518Z,1029.48
2019-03-28T08:31:47.493Z,1029.54
2019-03-28T08:32:47.496Z,1029.51
2019-03-28T08:33:48.502Z,1029.45
2019-03-28T08:34:47.502Z,1029.46
2019-03-28T08:35:47.507Z,1029.49
2019-03-28T08:36:47.498Z,1029.52
2019-03-28T08:37:48.652Z,1029.56
2019-03-28T08:38:54.066Z,1029.53
2019-03-28T08:39:47.498Z,1029.55
2019-03-28T08:40:52.618Z,1029.54
2019-03-28T08:41:48.817Z,1029.58
2019-03-28T08:42:47.565Z,1029.58
2019-03-28T08:43:47.382Z,1029.56
2019-03-28T08:44:47.626Z,1029.59
2019-03-28T08:45:55.897Z,1029.67
2019-03-28T08:46:47.645Z,1029.75
2019-03-28T08:47:49.542Z,1029.69
2019-03-28T08:48:51.315Z,1029.66
2019-03-28T08:49:49.748Z,1029.64
2019-03-28T08:50:48.095Z,1029.68
2019-03-28T08:51:48.391Z,1029.68
2019-03-28T08:52:49.009Z,1029.68
2019-03-28T08:53:47.467Z,1029.67
2019-03-28T08:54:47.355Z,1029.69
2019-03-28T08:55:54.328Z,1029.76
2019-03-28T08:56:48.261Z,1029.74
2019-03-28T08:57:48.151Z,1029.76
2019-03-28T08:58:48.603Z,1029.76
2019-03-28T08:59:50.662Z,1029.78
2019-03-28T09:00:52.352Z,1029.77
2019-03-28T09:01:48.326Z,1029.74
2019-03-28T09:02:47.411Z,1029.73
2019-03-28T09:03:49.800Z,1029.72
2019-03-28T09:04:47.538Z,1029.80
2019-03-28T09:05:47.149Z,1029.74
2019-03-28T09:06:48.257Z,1029.72
2019-03-28T09:07:47.929Z,1029.76
2019-03-28T09:08:48.473Z,1029.74
2019-03-28T09:09:48.561Z,1029.79
2019-03-28T09:10:48.983Z,1029.81
2019-03-28T09:11:51.089Z,1029.78
2019-03-28T09:12:51.812Z,1029.83
2019-03-28T09:13:47.445Z,1029.77
2019-03-28T09:14:47.195Z,1029.82
2019-03-28T09:15:48.129Z,1029.78
2019-03-28T09:16:48.258Z,1029.71
2019-03-28T09:17:50.401Z,1029.76
2019-03-28T09:18:48.758Z,1029.69
2019-03-28T09:19:46.951Z,1029.76
2019-03-28T09:20:46.957Z,1029.77
2019-03-28T09:21:48.937Z,1029.76
2019-03-28T09:22:49.259Z,1029.77
2019-03-28T09:23:48.262Z,1029.78
2019-03-28T09:24:49.437Z,1029.74
2019-03-28T09:25:49.294Z,1029.78
2019-03-28T09:26:48.486Z,1029.86
2019-03-28T09:27:47.397Z,1029.79
2019-03-28T09:29:01.444Z,1029.77
2019-03-28T09:29:46.906Z,1029.78
2019-03-28T09:31:19.336Z,1029.75
2019-03-28T09:31:49.435Z,1029.72
2019-03-28T09:32:48.047Z,1029.71
2019-03-28T09:33:46.991Z,1029.67
2019-03-28T09:34:48.195Z,1029.73
2019-03-28T09:35:47.958Z,1029.68
2019-03-28T09:36:48.902Z,1029.66
2019-03-28T09:37:47.007Z,1029.80
2019-03-28T09:38:46.977Z,1029.79
2019-03-28T09:39:46.715Z,1029.77
2019-03-28T09:40:48.572Z,1029.82
2019-03-28T09:41:49.520Z,1029.78
2019-03-28T09:42:50.572Z,1029.76
2019-03-28T09:43:55.381Z,1029.76
2019-03-28T09:44:51.162Z,1029.65
2019-03-28T09:45:49.987Z,1029.68
2019-03-28T09:46:48.021Z,1029.72
2019-03-28T09:47:48.001Z,1029.70
2019-03-28T09:48:49.986Z,1029.72
2019-03-28T09:49:48.474Z,1029.59
2019-03-28T09:50:47.002Z,1029.68
2019-03-28T09:51:53.498Z,1029.67
2019-03-28T09:52:46.614Z,1029.69
2019-03-28T09:53:47.791Z,1029.63
2019-03-28T09:54:48.666Z,1029.65
2019-03-28T09:55:49.958Z,1029.65
2019-03-28T09:56:48.317Z,1029.62
2019-03-28T09:58:03.070Z,1029.58
2019-03-28T09:58:48.991Z,1029.64
2019-03-28T09:59:49.584Z,1029.62
2019-03-28T10:01:02.075Z,1029.73
2019-03-28T10:01:48.462Z,1029.66
2019-03-28T10:02:46.474Z,1029.65
2019-03-28T10:03:48.377Z,1029.64
2019-03-28T10:04:48.733Z,1029.66
2019-03-28T10:05:46.539Z,1029.64
2019-03-28T10:06:50.393Z,1029.66
2019-03-28T10:08:01.054Z,1029.62
2019-03-28T10:08:46.711Z,1029.62
2019-03-28T10:09:47.586Z,1029.64
2019-03-28T10:10:48.744Z,1029.63
2019-03-28T10:11:46.417Z,1029.63
2019-03-28T10:12:47.813Z,1029.65
2019-03-28T10:13:50.704Z,1029.70
2019-03-28T10:14:48.501Z,1029.65
2019-03-28T10:15:49.115Z,1029.71
2019-03-28T10:16:48.348Z,1029.72
2019-03-28T10:17:47.806Z,1029.73
2019-03-28T10:18:49.289Z,1029.79
2019-03-28T10:19:49.960Z,1029.79
2019-03-28T10:22:22.168Z,1029.77
2019-03-28T10:23:15.824Z,1029.77
2019-03-28T10:24:07.825Z,1029.85
2019-03-28T10:25:07.925Z,1029.77
2019-03-28T10:26:08.942Z,1029.80
2019-03-28T10:27:10.301Z,1029.78
2019-03-28T10:28:10.333Z,1029.75
2019-03-28T10:29:07.990Z,1029.78
2019-03-28T10:30:10.712Z,1029.83
2019-03-28T10:31:16.577Z,1029.80
2019-03-28T10:32:10.285Z,1029.80
2019-03-28T10:33:09.412Z,1029.72
2019-03-28T10:34:08.504Z,1029.78
2019-03-28T10:35:07.723Z,1029.79
2019-03-28T10:36:08.314Z,1029.82
2019-03-28T10:37:08.206Z,1029.76
2019-03-28T10:38:07.602Z,1029.72
2019-03-28T10:39:08.862Z,1029.71
2019-03-28T10:40:07.651Z,1029.70
2019-03-28T10:41:25.621Z,1029.72
2019-03-28T10:42:09.970Z,1029.78
2019-03-28T10:43:07.953Z,1029.75
2019-03-28T10:44:09.622Z,1029.80
2019-03-28T10:45:08.906Z,1029.83
2019-03-28T10:46:08.290Z,1029.85
2019-03-28T10:47:14.957Z,1029.85
2019-03-28T10:48:10.528Z,1029.83
2019-03-28T10:49:09.887Z,1029.84
2019-03-28T10:50:07.674Z,1029.90
2019-03-28T10:51:07.443Z,1029.83
2019-03-28T10:52:07.433Z,1029.83
2019-03-28T10:53:07.438Z,1029.78
2019-03-28T10:54:19.255Z,1029.83
2019-03-28T10:55:08.434Z,1029.79
2019-03-28T10:56:20.555Z,1029.86
2019-03-28T10:57:15.552Z,1029.87
2019-03-28T10:58:18.394Z,1029.82
2019-03-28T10:59:22.405Z,1029.84
2019-03-28T11:00:08.333Z,1029.84
2019-03-28T11:01:07.347Z,1029.87
2019-03-28T11:02:07.458Z,1029.83
2019-03-28T11:03:07.339Z,1029.85
2019-03-28T11:04:07.283Z,1029.84
2019-03-28T11:05:07.288Z,1029.90
2019-03-28T11:06:07.272Z,1029.94
2019-03-28T11:07:07.253Z,1029.87
2019-03-28T11:08:07.319Z,1029.93
2019-03-28T11:09:07.230Z,1029.86
2019-03-28T11:10:07.217Z,1029.95
2019-03-28T11:11:07.213Z,1029.88
2019-03-28T11:12:07.206Z,1029.85
2019-03-28T11:13:09.556Z,1029.84
2019-03-28T11:14:07.217Z,1029.93
2019-03-28T11:15:07.170Z,1029.90
2019-03-28T11:16:07.337Z,1029.97
2019-03-28T11:17:07.142Z,1030.03
2019-03-28T11:18:07.201Z,1030.00
2019-03-28T11:19:07.115Z,1030.01
2019-03-28T11:20:07.100Z,1030.03
2019-03-28T11:21:07.094Z,1029.99
2019-03-28T11:22:07.088Z,1029.96
2019-03-28T11:23:07.339Z,1029.98
2019-03-28T11:24:07.091Z,1029.98
2019-03-28T11:25:07.045Z,1030.01
2019-03-28T11:26:07.035Z,1029.99
2019-03-28T11:27:07.046Z,1030.02
2019-03-28T11:28:07.047Z,1029.99
2019-03-28T11:29:07.903Z,1030.01
2019-03-28T11:30:06.997Z,1030.01
2019-03-28T11:31:06.978Z,1029.96
2019-03-28T11:32:06.963Z,1030.01
2019-03-28T11:33:07.783Z,1030.10
2019-03-28T11:34:06.972Z,1030.06
2019-03-28T11:35:06.974Z,1030.12
2019-03-28T11:36:06.923Z,1030.10
2019-03-28T11:37:09.782Z,1030.06
2019-03-28T11:38:09.609Z,1030.06
2019-03-28T11:39:06.950Z,1030.12
2019-03-28T11:40:09.170Z,1030.09
2019-03-28T11:41:06.861Z,1030.13
2019-03-28T11:42:06.853Z,1030.02
2019-03-28T11:43:06.855Z,1030.12
2019-03-28T11:44:06.857Z,1030.08
2019-03-28T11:45:09.262Z,1030.23
2019-03-28T11:46:06.850Z,1030.20
2019-03-28T11:47:06.937Z,1030.16
2019-03-28T11:48:06.841Z,1030.15
2019-03-28T11:49:06.785Z,1030.17
2019-03-28T11:50:06.761Z,1030.22
2019-03-28T11:51:06.754Z,1030.20
2019-03-28T11:52:06.790Z,1030.22
2019-03-28T11:53:06.879Z,1030.21
2019-03-28T11:54:06.795Z,1030.16
2019-03-28T11:55:06.721Z,1030.17
2019-03-28T11:56:06.704Z,1030.19
2019-03-28T11:57:06.707Z,1030.19
2019-03-28T11:58:06.666Z,1030.24
2019-03-28T11:59:06.674Z,1030.26
2019-03-28T12:00:06.643Z,1030.28
2019-03-28T12:01:06.685Z,1030.18
2019-03-28T12:02:19.281Z,1030.26
2019-03-28T12:03:07.611Z,1030.16
2019-03-28T12:04:06.700Z,1030.23
2019-03-28T12:05:06.590Z,1030.22
2019-03-28T12:06:06.576Z,1030.24
2019-03-28T12:07:06.568Z,1030.21
2019-03-28T12:08:06.575Z,1030.21
2019-03-28T12:09:06.539Z,1030.32
2019-03-28T12:10:06.546Z,1030.20
2019-03-28T12:11:06.518Z,1030.27
2019-03-28T12:12:06.520Z,1030.29
2019-03-28T12:13:06.514Z,1030.28